Time;durP1;ratioP1;P1;durP2;ratioP2;P2;SDS_P1;SDS_P2;PMS_P1;PMS_P2;Temp;Humidity;BMP_temperature;BMP_pressure;BME280_temperature;BME280_humidity;BME280_pressure;Samples;Min_cycle;Max_cycle;Signal;HPM_P1;HPM_P2
2023/04/28 00:00:17;;;;;;;13.17;7.70;;;11.20;99.90;;;;;;4953291;28;21002;-72
2023/04/28 00:02:44;;;;;;;18.53;8.07;;;11.20;99.90;;;;;;4953594;28;20868;-72
2023/04/28 00:05:11;;;;;;;14.43;6.30;;;11.20;99.90;;;;;;4953131;28;21017;-72
2023/04/28 00:07:38;;;;;;;10.80;6.77;;;11.30;99.90;;;;;;4953478;28;20446;-72
2023/04/28 00:10:06;;;;;;;8.57;6.83;;;11.30;99.90;;;;;;4953268;28;20516;-72
2023/04/28 00:12:34;;;;;;;17.93;7.27;;;11.30;99.90;;;;;;4953449;28;20450;-72
2023/04/28 00:15:01;;;;;;;13.40;7.07;;;11.30;99.90;;;;;;4953359;28;20816;-72
2023/04/28 00:17:27;;;;;;;10.43;7.43;;;11.20;99.90;;;;;;4953180;28;20532;-72
2023/04/28 00:19:54;;;;;;;10.30;7.70;;;11.20;99.90;;;;;;4953119;28;20473;-72
2023/04/28 00:22:21;;;;;;;10.47;7.70;;;11.20;99.90;;;;;;4950654;28;20977;-72
2023/04/28 00:24:48;;;;;;;14.43;7.60;;;11.20;99.90;;;;;;4952853;28;20583;-72
2023/04/28 00:27:14;;;;;;;15.87;8.00;;;11.20;99.90;;;;;;4952951;28;21111;-72
2023/04/28 00:29:42;;;;;;;12.83;7.37;;;11.20;99.90;;;;;;4953192;28;20572;-72
2023/04/28 00:32:09;;;;;;;11.37;7.33;;;11.20;99.90;;;;;;4953311;28;20479;-72
2023/04/28 00:34:36;;;;;;;14.90;7.50;;;11.20;99.90;;;;;;4952750;28;20454;-72
2023/04/28 00:37:03;;;;;;;12.93;7.53;;;11.20;99.90;;;;;;4948171;28;20548;-72
2023/04/28 00:39:29;;;;;;;12.40;8.50;;;11.20;99.90;;;;;;4952203;28;20552;-72
2023/04/28 00:41:56;;;;;;;10.80;7.77;;;11.20;99.90;;;;;;4953067;28;20457;-72
2023/04/28 00:44:23;;;;;;;9.53;7.73;;;11.10;99.90;;;;;;4952552;28;20509;-72
2023/04/28 00:46:51;;;;;;;17.57;7.13;;;11.10;99.90;;;;;;4952358;28;20527;-73
2023/04/28 00:49:18;;;;;;;15.30;7.20;;;11.10;99.90;;;;;;4952380;28;20540;-72
2023/04/28 00:51:44;;;;;;;11.77;7.60;;;11.00;99.90;;;;;;4952317;28;20462;-72
2023/04/28 00:54:13;;;;;;;13.63;7.87;;;11.10;99.90;;;;;;4952770;28;20461;-72
2023/04/28 00:56:40;;;;;;;12.60;8.10;;;11.00;99.90;;;;;;4952503;28;21017;-72
2023/04/28 00:59:07;;;;;;;12.30;7.67;;;11.00;99.90;;;;;;4952056;28;20517;-72
2023/04/28 01:01:35;;;;;;;12.80;7.57;;;11.00;99.90;;;;;;4952181;28;20462;-72
2023/04/28 01:04:03;;;;;;;8.00;6.97;;;11.00;99.90;;;;;;4952401;28;21031;-72
2023/04/28 01:06:31;;;;;;;12.50;7.07;;;11.00;99.90;;;;;;4952269;28;20516;-72
2023/04/28 01:08:58;;;;;;;11.00;7.37;;;11.00;99.90;;;;;;4952574;28;20457;-72
2023/04/28 01:11:24;;;;;;;12.20;6.73;;;11.00;99.90;;;;;;4952133;28;20520;-72
2023/04/28 01:13:51;;;;;;;11.93;7.13;;;11.00;99.90;;;;;;4952465;28;20449;-72
2023/04/28 01:16:18;;;;;;;10.73;7.30;;;11.00;99.90;;;;;;4951677;28;20489;-72
2023/04/28 01:18:47;;;;;;;9.23;6.43;;;11.00;99.90;;;;;;4952509;28;20525;-72
2023/04/28 01:21:26;;;;;;;16.93;6.97;;;11.00;99.90;;;;;;4952511;28;20484;-72
2023/04/28 01:23:55;;;;;;;16.53;7.53;;;11.00;99.90;;;;;;4952404;28;20450;-72
2023/04/28 01:26:21;;;;;;;12.40;7.70;;;11.00;99.90;;;;;;4951838;28;20462;-72
2023/04/28 01:28:48;;;;;;;12.33;7.67;;;11.00;99.90;;;;;;4952166;28;20517;-72
2023/04/28 01:31:15;;;;;;;10.13;7.10;;;10.90;99.90;;;;;;4952312;28;20533;-72
2023/04/28 01:33:42;;;;;;;9.70;6.90;;;10.90;99.90;;;;;;4952381;28;20449;-72
2023/04/28 01:36:09;;;;;;;12.60;7.20;;;10.90;99.90;;;;;;4951943;28;20472;-73
2023/04/28 01:38:35;;;;;;;12.50;7.50;;;10.90;99.90;;;;;;4952109;28;20461;-72
2023/04/28 01:41:03;;;;;;;15.90;8.30;;;10.80;99.90;;;;;;4951592;28;21085;-72
2023/04/28 01:43:30;;;;;;;14.27;7.50;;;10.80;99.90;;;;;;4951064;28;20500;-72
2023/04/28 01:45:57;;;;;;;14.33;8.37;;;10.70;99.90;;;;;;4951819;28;21026;-72
2023/04/28 01:48:23;;;;;;;13.30;8.47;;;10.70;99.90;;;;;;4952278;28;20466;-73
2023/04/28 01:50:50;;;;;;;19.43;8.17;;;10.70;99.90;;;;;;4953931;28;20477;-73
2023/04/28 01:53:19;;;;;;;13.43;7.47;;;10.80;99.90;;;;;;4955529;28;20513;-73
2023/04/28 01:55:46;;;;;;;13.80;8.40;;;10.90;99.90;;;;;;4952213;28;20516;-73
2023/04/28 01:58:14;;;;;;;16.53;8.20;;;10.70;99.90;;;;;;4955516;28;21033;-73
2023/04/28 02:00:40;;;;;;;13.90;8.40;;;10.70;99.90;;;;;;4955252;28;21005;-73
2023/04/28 02:03:07;;;;;;;15.10;8.63;;;10.70;99.90;;;;;;4955998;28;20457;-72
2023/04/28 02:05:33;;;;;;;14.27;8.63;;;10.70;99.90;;;;;;4955076;28;20488;-73
2023/04/28 02:08:00;;;;;;;12.60;9.40;;;10.70;99.90;;;;;;4955597;28;20462;-73
2023/04/28 02:10:27;;;;;;;11.57;8.80;;;10.70;99.90;;;;;;4955350;28;20486;-73
2023/04/28 02:12:53;;;;;;;10.87;8.50;;;10.70;99.90;;;;;;4955875;28;20466;-73
2023/04/28 02:15:21;;;;;;;12.50;9.43;;;10.60;99.90;;;;;;4955183;28;21044;-73
2023/04/28 02:17:48;;;;;;;13.80;8.67;;;10.60;99.90;;;;;;4955641;28;20513;-73
2023/04/28 02:20:15;;;;;;;20.07;8.93;;;10.60;99.90;;;;;;4955110;28;20981;-73
2023/04/28 02:22:41;;;;;;;14.03;9.10;;;10.60;99.90;;;;;;4955036;28;21284;-73
2023/04/28 02:25:09;;;;;;;21.60;9.43;;;10.60;99.90;;;;;;4950656;28;20486;-72
2023/04/28 02:27:37;;;;;;;14.20;9.47;;;10.60;99.90;;;;;;4954998;28;20556;-72
2023/04/28 02:30:04;;;;;;;14.50;9.43;;;10.60;99.90;;;;;;4954971;28;20568;-72
2023/04/28 02:32:32;;;;;;;12.13;8.23;;;10.60;99.90;;;;;;4954982;28;21006;-72
2023/04/28 02:34:59;;;;;;;15.43;8.97;;;10.60;99.90;;;;;;4954947;28;21005;-72
2023/04/28 02:37:25;;;;;;;19.47;9.50;;;10.70;99.90;;;;;;4954959;28;20469;-72
2023/04/28 02:39:52;;;;;;;14.33;8.50;;;10.70;99.90;;;;;;4955092;28;20473;-72
2023/04/28 02:42:18;;;;;;;18.63;9.40;;;10.70;99.90;;;;;;4954948;28;20942;-72
2023/04/28 02:44:45;;;;;;;15.60;9.70;;;10.70;99.90;;;;;;4954551;28;21055;-72
2023/04/28 02:47:12;;;;;;;17.03;8.60;;;10.70;99.90;;;;;;4955110;28;20462;-73
2023/04/28 02:49:40;;;;;;;13.60;9.43;;;10.60;99.90;;;;;;4954495;28;20509;-72
2023/04/28 02:52:06;;;;;;;14.70;9.30;;;10.60;99.90;;;;;;4955073;28;20461;-72
2023/04/28 02:54:35;;;;;;;16.50;8.67;;;10.60;99.90;;;;;;4954238;28;20458;-72
2023/04/28 02:57:02;;;;;;;10.47;8.37;;;10.50;99.90;;;;;;4954947;28;20543;-72
2023/04/28 02:59:29;;;;;;;16.47;9.30;;;10.40;99.90;;;;;;4953701;28;20841;-72
2023/04/28 03:01:56;;;;;;;16.10;8.60;;;10.30;99.90;;;;;;4954130;28;20470;-72
2023/04/28 03:04:22;;;;;;;15.80;8.40;;;10.30;99.90;;;;;;4954400;28;20509;-72
2023/04/28 03:06:50;;;;;;;15.47;8.60;;;10.30;99.90;;;;;;4954690;28;20460;-72
2023/04/28 03:09:17;;;;;;;14.23;9.00;;;10.20;99.90;;;;;;4954441;28;20474;-72
2023/04/28 03:11:44;;;;;;;14.63;8.70;;;10.30;99.90;;;;;;4954460;28;20450;-73
2023/04/28 03:14:10;;;;;;;15.63;9.50;;;10.30;99.90;;;;;;4954293;28;20458;-73
2023/04/28 03:16:37;;;;;;;14.17;9.17;;;10.30;99.90;;;;;;4953977;28;20868;-72
2023/04/28 03:19:04;;;;;;;14.73;9.90;;;10.30;99.90;;;;;;4954506;28;20446;-72
2023/04/28 03:21:31;;;;;;;17.27;10.20;;;10.20;99.90;;;;;;4953874;28;20858;-72
2023/04/28 03:23:59;;;;;;;18.67;9.37;;;10.20;99.90;;;;;;4954443;28;20516;-73
2023/04/28 03:26:25;;;;;;;12.43;9.67;;;10.10;99.90;;;;;;4953626;28;20493;-72
2023/04/28 03:28:53;;;;;;;22.00;9.77;;;10.20;99.90;;;;;;4953742;28;20462;-72
2023/04/28 03:31:19;;;;;;;19.83;9.50;;;10.20;99.90;;;;;;4954358;28;20553;-72
2023/04/28 03:33:46;;;;;;;15.67;9.60;;;10.10;99.90;;;;;;4953622;28;20512;-72
2023/04/28 03:36:13;;;;;;;15.30;10.33;;;10.10;99.90;;;;;;4953862;28;20462;-72
2023/04/28 03:38:40;;;;;;;17.77;10.90;;;10.10;99.90;;;;;;4953970;28;20508;-72
2023/04/28 03:41:08;;;;;;;19.80;11.03;;;10.10;99.90;;;;;;4953691;28;20513;-72
2023/04/28 03:43:36;;;;;;;22.40;11.00;;;10.10;99.90;;;;;;4953466;28;20508;-72
2023/04/28 03:46:03;;;;;;;20.77;10.43;;;10.00;99.90;;;;;;4953717;28;20552;-72
2023/04/28 03:48:29;;;;;;;17.90;10.20;;;10.00;99.90;;;;;;4953607;28;20461;-72
2023/04/28 03:50:56;;;;;;;18.43;12.63;;;10.00;99.90;;;;;;4953819;28;20536;-72
2023/04/28 03:53:22;;;;;;;16.40;11.77;;;10.00;99.90;;;;;;4953192;28;20512;-72
2023/04/28 03:55:50;;;;;;;23.60;12.50;;;9.90;99.90;;;;;;4945754;28;20587;-73
2023/04/28 03:58:18;;;;;;;20.50;12.43;;;9.90;99.90;;;;;;4953821;28;20476;-73
2023/04/28 04:00:45;;;;;;;20.57;11.90;;;9.90;99.90;;;;;;4953456;28;20474;-73
2023/04/28 04:03:12;;;;;;;16.87;11.43;;;9.90;99.90;;;;;;4953706;28;20473;-73
2023/04/28 04:05:40;;;;;;;17.10;12.03;;;9.90;99.90;;;;;;4953174;28;20490;-73
2023/04/28 04:08:06;;;;;;;14.53;10.60;;;9.80;99.90;;;;;;4953217;28;20465;-73
2023/04/28 04:10:33;;;;;;;13.03;10.90;;;9.80;99.90;;;;;;4953392;28;20485;-73
2023/04/28 04:12:59;;;;;;;18.93;10.80;;;9.70;99.90;;;;;;4953007;28;20504;-73
2023/04/28 04:15:27;;;;;;;17.10;11.67;;;9.70;99.90;;;;;;4952469;28;20457;-73
2023/04/28 04:17:54;;;;;;;18.77;11.40;;;9.60;99.90;;;;;;4953452;28;20865;-73
2023/04/28 04:20:21;;;;;;;17.90;11.13;;;9.50;99.90;;;;;;4953239;28;20477;-73
2023/04/28 04:22:47;;;;;;;17.17;12.10;;;9.40;99.90;;;;;;4952634;28;20939;-73
2023/04/28 04:25:14;;;;;;;21.97;12.73;;;9.30;99.90;;;;;;4953080;28;20493;-73
2023/04/28 04:27:40;;;;;;;17.87;11.63;;;9.20;99.90;;;;;;4952857;28;20966;-73
2023/04/28 04:30:08;;;;;;;16.10;11.50;;;9.20;99.90;;;;;;4953090;28;20532;-73
2023/04/28 04:32:36;;;;;;;17.90;11.90;;;9.10;99.90;;;;;;4953090;28;20512;-73
2023/04/28 04:35:03;;;;;;;17.70;12.33;;;9.10;99.90;;;;;;4952719;28;20493;-74
2023/04/28 04:37:30;;;;;;;20.30;12.20;;;9.10;99.90;;;;;;4952544;28;20611;-73
2023/04/28 04:39:56;;;;;;;18.83;12.80;;;9.10;99.90;;;;;;4952910;28;20545;-73
2023/04/28 04:42:23;;;;;;;25.83;12.47;;;9.00;99.90;;;;;;4952871;28;20454;-73
2023/04/28 04:44:50;;;;;;;20.60;12.23;;;9.10;99.90;;;;;;4952778;28;20450;-73
2023/04/28 04:47:17;;;;;;;25.27;13.13;;;9.10;99.90;;;;;;4952793;28;20466;-73
2023/04/28 04:49:45;;;;;;;22.80;12.83;;;9.10;99.90;;;;;;4952312;28;20478;-73
2023/04/28 04:52:12;;;;;;;21.57;12.87;;;9.10;99.90;;;;;;4952912;28;20466;-73
2023/04/28 04:54:39;;;;;;;20.23;12.60;;;9.10;99.90;;;;;;4952369;28;20516;-74
2023/04/28 04:57:05;;;;;;;23.77;13.77;;;9.10;99.90;;;;;;4952780;28;20462;-73
2023/04/28 04:59:32;;;;;;;18.90;12.17;;;9.10;99.90;;;;;;4951730;28;20480;-74
2023/04/28 05:01:59;;;;;;;17.77;11.57;;;9.10;99.90;;;;;;4951601;28;20973;-74
2023/04/28 05:04:25;;;;;;;22.23;11.97;;;9.20;99.90;;;;;;4952508;28;20449;-73
2023/04/28 05:06:53;;;;;;;20.35;12.32;;;9.20;99.90;;;;;;4944453;28;20456;-72
2023/04/28 05:09:21;;;;;;;24.30;13.33;;;9.20;99.90;;;;;;4959525;28;20325;-72
2023/04/28 05:11:48;;;;;;;17.93;12.67;;;9.20;99.90;;;;;;4952347;28;21013;-72
2023/04/28 05:14:15;;;;;;;16.00;11.70;;;9.30;99.90;;;;;;4952346;28;20940;-72
2023/04/28 05:16:42;;;;;;;16.70;11.97;;;9.40;99.90;;;;;;4952122;28;20528;-73
2023/04/28 05:19:09;;;;;;;22.93;12.93;;;9.40;99.90;;;;;;4952354;28;20461;-72
2023/04/28 05:21:36;;;;;;;17.83;12.10;;;9.40;99.90;;;;;;4951504;28;20541;-72
2023/04/28 05:24:04;;;;;;;16.07;11.90;;;9.40;99.90;;;;;;4951961;28;20468;-71
2023/04/28 05:26:31;;;;;;;17.03;11.23;;;9.50;99.90;;;;;;4956448;28;20496;-71
2023/04/28 05:28:57;;;;;;;22.10;11.77;;;9.50;99.90;;;;;;4957609;28;20466;-71
2023/04/28 05:31:24;;;;;;;17.20;10.93;;;9.50;99.90;;;;;;4957950;28;20517;-71
2023/04/28 05:33:51;;;;;;;20.67;12.30;;;9.50;99.90;;;;;;4956998;28;20465;-71
2023/04/28 05:36:18;;;;;;;18.03;12.87;;;9.50;99.90;;;;;;4956821;28;20480;-71
2023/04/28 05:38:45;;;;;;;27.97;15.03;;;9.60;99.90;;;;;;4957710;28;20461;-71
2023/04/28 05:41:13;;;;;;;19.13;11.83;;;9.60;99.90;;;;;;4958006;28;20493;-71
2023/04/28 05:43:40;;;;;;;20.40;12.87;;;9.70;99.90;;;;;;4955336;28;20458;-71
2023/04/28 05:46:06;;;;;;;24.03;12.87;;;9.70;99.90;;;;;;4955793;28;20493;-71
2023/04/28 05:48:33;;;;;;;22.63;13.37;;;9.70;99.90;;;;;;4958144;28;20457;-71
2023/04/28 05:51:00;;;;;;;19.13;12.70;;;9.70;99.90;;;;;;4957974;28;20531;-72
2023/04/28 05:53:26;;;;;;;23.37;13.00;;;9.70;99.90;;;;;;4957379;28;20449;-72
2023/04/28 05:55:53;;;;;;;15.53;11.80;;;9.70;99.90;;;;;;4956675;28;20494;-72
2023/04/28 05:58:21;;;;;;;24.27;14.03;;;9.70;99.90;;;;;;4957728;28;20514;-72
2023/04/28 06:00:48;;;;;;;21.63;12.63;;;9.70;99.90;;;;;;4957195;28;20473;-72
2023/04/28 06:03:17;;;;;;;20.50;13.30;;;9.70;99.90;;;;;;4957321;28;20528;-72
2023/04/28 06:05:44;;;;;;;21.63;13.40;;;9.80;99.90;;;;;;4957133;28;20523;-72
2023/04/28 06:08:10;;;;;;;24.27;14.03;;;9.80;99.90;;;;;;4957121;28;20465;-71
2023/04/28 06:10:37;;;;;;;21.80;12.20;;;9.80;99.90;;;;;;4957643;28;20470;-72
2023/04/28 06:13:05;;;;;;;20.47;13.57;;;9.80;99.90;;;;;;4957242;28;20457;-71
2023/04/28 06:15:33;;;;;;;18.70;14.13;;;9.80;99.90;;;;;;4957503;28;20462;-71
2023/04/28 06:18:00;;;;;;;21.37;13.63;;;9.80;99.90;;;;;;4957473;28;21172;-71
2023/04/28 06:20:27;;;;;;;22.73;12.93;;;9.80;99.90;;;;;;4956887;28;20485;-72
2023/04/28 06:22:54;;;;;;;25.77;13.57;;;9.80;99.90;;;;;;4957666;28;20504;-72
2023/04/28 06:25:20;;;;;;;22.60;12.80;;;9.80;99.90;;;;;;4957603;28;20544;-71
2023/04/28 06:27:47;;;;;;;17.27;12.73;;;9.80;99.90;;;;;;4956847;28;20516;-70
2023/04/28 06:30:18;;;;;;;17.80;11.53;;;9.80;99.90;;;;;;4957315;28;20577;-70
2023/04/28 06:32:46;;;;;;;22.63;11.80;;;9.70;99.90;;;;;;4956775;28;20489;-72
2023/04/28 06:35:12;;;;;;;23.20;12.50;;;9.70;99.90;;;;;;4956820;28;20462;-71
2023/04/28 06:37:39;;;;;;;22.10;12.77;;;9.60;99.90;;;;;;4954282;28;21016;-71
2023/04/28 06:40:07;;;;;;;20.40;13.77;;;9.60;99.90;;;;;;4954193;28;20520;-72
2023/04/28 06:42:34;;;;;;;27.43;13.43;;;9.70;99.90;;;;;;4954032;28;20512;-72
2023/04/28 06:45:01;;;;;;;23.13;11.97;;;9.70;99.90;;;;;;4953701;28;20450;-72
2023/04/28 06:47:27;;;;;;;16.90;11.60;;;9.60;99.90;;;;;;4953766;28;20537;-71
2023/04/28 06:49:56;;;;;;;20.33;11.63;;;9.50;99.90;;;;;;4954152;28;20501;-72
2023/04/28 06:52:22;;;;;;;24.27;13.30;;;9.40;99.90;;;;;;4954130;28;20516;-72
2023/04/28 06:54:50;;;;;;;22.63;13.30;;;9.30;99.90;;;;;;4953761;28;21006;-72
2023/04/28 06:57:16;;;;;;;24.50;13.47;;;9.20;99.90;;;;;;4953844;28;20462;-72
2023/04/28 06:59:45;;;;;;;18.50;13.67;;;9.10;99.90;;;;;;4952995;28;20481;-72
2023/04/28 07:02:11;;;;;;;28.77;12.90;;;9.10;99.90;;;;;;4954205;28;20497;-72
2023/04/28 07:04:38;;;;;;;19.63;13.63;;;9.10;99.90;;;;;;4953737;28;20449;-72
2023/04/28 07:07:07;;;;;;;20.50;13.00;;;9.00;99.90;;;;;;4953785;28;20497;-71
2023/04/28 07:09:34;;;;;;;22.77;15.23;;;8.90;99.90;;;;;;4953761;28;20532;-72
2023/04/28 07:12:00;;;;;;;21.10;13.90;;;8.90;99.90;;;;;;4953348;28;20446;-72
2023/04/28 07:14:27;;;;;;;20.40;14.07;;;8.90;99.90;;;;;;4953698;28;20461;-71
2023/04/28 07:16:53;;;;;;;21.10;14.30;;;9.00;99.90;;;;;;4952997;28;20505;-72
2023/04/28 07:19:20;;;;;;;21.77;13.80;;;9.00;99.90;;;;;;4953297;28;20478;-72
2023/04/28 07:21:47;;;;;;;22.60;14.70;;;9.00;99.90;;;;;;4953499;28;20536;-72
2023/04/28 07:24:15;;;;;;;19.43;15.07;;;9.00;99.90;;;;;;4953018;28;20480;-72
2023/04/28 07:26:41;;;;;;;19.60;13.30;;;9.00;99.90;;;;;;4952635;28;20490;-72
2023/04/28 07:29:09;;;;;;;25.37;15.10;;;9.00;99.90;;;;;;4953629;28;20509;-72
2023/04/28 07:31:36;;;;;;;21.17;14.80;;;9.00;99.90;;;;;;4952917;28;20517;-71
2023/04/28 07:34:02;;;;;;;27.33;14.70;;;9.00;99.90;;;;;;4946061;28;21092;-71
2023/04/28 07:36:29;;;;;;;23.90;14.43;;;9.00;99.90;;;;;;4953000;28;20458;-72
2023/04/28 07:38:56;;;;;;;22.50;16.17;;;9.00;99.90;;;;;;4952383;28;20458;-72
2023/04/28 07:41:27;;;;;;;24.40;15.43;;;9.00;99.90;;;;;;4953421;28;20469;-72
2023/04/28 07:43:54;;;;;;;22.43;14.27;;;9.00;99.90;;;;;;4953227;28;20457;-71
2023/04/28 07:46:21;;;;;;;26.00;15.87;;;9.10;99.90;;;;;;4952160;28;20489;-71
2023/04/28 07:48:48;;;;;;;25.17;15.67;;;9.10;99.90;;;;;;4952636;28;20462;-71
2023/04/28 07:51:15;;;;;;;22.93;16.20;;;9.00;99.90;;;;;;4953208;28;20478;-71
2023/04/28 07:53:41;;;;;;;25.10;15.67;;;9.10;99.90;;;;;;4952114;28;20473;-72
2023/04/28 07:56:08;;;;;;;26.57;16.53;;;9.20;99.90;;;;;;4952915;28;20856;-71
2023/04/28 07:58:36;;;;;;;25.10;15.80;;;9.20;99.90;;;;;;4951994;28;20461;-71
2023/04/28 08:01:03;;;;;;;26.73;16.47;;;9.20;99.90;;;;;;4952362;28;20474;-71
2023/04/28 08:03:30;;;;;;;25.07;15.97;;;9.30;99.90;;;;;;4952975;28;20509;-71
2023/04/28 08:05:57;;;;;;;23.20;15.97;;;9.30;99.90;;;;;;4952588;28;20454;-71
2023/04/28 08:08:24;;;;;;;21.90;15.57;;;9.40;99.90;;;;;;4952463;28;20458;-71
2023/04/28 08:10:51;;;;;;;24.30;16.10;;;9.40;99.90;;;;;;4952376;28;20505;-71
2023/04/28 08:13:18;;;;;;;25.63;16.03;;;9.40;99.90;;;;;;4951886;28;20494;-72
2023/04/28 08:15:47;;;;;;;23.40;16.80;;;9.40;99.90;;;;;;4952498;28;20458;-71
2023/04/28 08:18:14;;;;;;;22.83;16.80;;;9.40;99.90;;;;;;4951789;28;20458;-72
2023/04/28 08:20:40;;;;;;;22.87;15.80;;;9.40;99.90;;;;;;4952184;28;20505;-72
2023/04/28 08:23:07;;;;;;;28.43;17.77;;;9.40;99.90;;;;;;4952040;28;21017;-71
2023/04/28 08:25:34;;;;;;;29.43;17.77;;;9.50;99.90;;;;;;4952199;28;20508;-71
2023/04/28 08:28:02;;;;;;;22.90;16.53;;;9.60;99.90;;;;;;4951717;28;20489;-72
2023/04/28 08:30:28;;;;;;;29.00;17.60;;;9.60;99.90;;;;;;4951352;28;20489;-72
2023/04/28 08:32:56;;;;;;;28.50;17.13;;;9.60;99.90;;;;;;4951890;28;20877;-71
2023/04/28 08:35:23;;;;;;;24.73;19.03;;;9.60;99.90;;;;;;4951243;28;20521;-72
2023/04/28 08:37:51;;;;;;;24.90;17.13;;;9.70;99.90;;;;;;4951011;28;22232;-71
2023/04/28 08:40:19;;;;;;;22.63;17.27;;;9.70;99.90;;;;;;4952430;28;20476;-71
2023/04/28 08:42:46;;;;;;;23.50;16.07;;;9.80;99.90;;;;;;4952248;28;20543;-71
2023/04/28 08:45:14;;;;;;;20.40;15.00;;;9.90;99.90;;;;;;4951958;28;20457;-71
2023/04/28 08:47:44;;;;;;;22.07;16.10;;;9.90;99.90;;;;;;4951955;28;20501;-71
2023/04/28 08:50:13;;;;;;;26.43;16.03;;;9.90;99.90;;;;;;4951347;28;21033;-71
2023/04/28 08:52:41;;;;;;;25.00;17.80;;;9.90;99.90;;;;;;4951456;28;20466;-72
2023/04/28 08:55:10;;;;;;;22.23;16.70;;;9.90;99.90;;;;;;4951916;28;20464;-72
2023/04/28 08:57:38;;;;;;;23.80;17.20;;;10.00;99.90;;;;;;4952181;28;20466;-71
2023/04/28 09:00:06;;;;;;;22.60;16.20;;;10.00;99.90;;;;;;4951069;28;20474;-71
2023/04/28 09:02:33;;;;;;;24.73;16.63;;;10.10;99.90;;;;;;4951465;28;20525;-71
2023/04/28 09:04:59;;;;;;;23.43;16.83;;;10.10;99.90;;;;;;4950526;28;20464;-71
2023/04/28 09:07:27;;;;;;;24.13;17.03;;;10.20;99.90;;;;;;4951472;28;20497;-71
2023/04/28 09:10:15;;;;;;;20.97;16.50;;;10.30;99.90;;;;;;4951684;28;20477;-71
2023/04/28 09:12:42;;;;;;;22.10;16.93;;;10.20;99.90;;;;;;4951704;28;20450;-71
2023/04/28 09:15:09;;;;;;;26.33;15.60;;;10.30;99.90;;;;;;4949286;28;20461;-72
2023/04/28 09:17:48;;;;;;;23.20;17.63;;;10.30;99.90;;;;;;4951073;28;21007;-72
2023/04/28 09:20:20;;;;;;;24.60;17.37;;;10.30;99.90;;;;;;4948720;28;20476;-72
2023/04/28 09:22:48;;;;;;;21.17;16.47;;;10.30;99.90;;;;;;4951821;28;20984;-72
2023/04/28 09:25:16;;;;;;;22.53;16.80;;;10.30;99.90;;;;;;4952171;28;20453;-72
2023/04/28 09:27:42;;;;;;;24.37;17.47;;;10.30;99.90;;;;;;4951823;28;20486;-72
2023/04/28 09:30:09;;;;;;;23.27;16.87;;;10.30;99.90;;;;;;4951150;28;20486;-72
2023/04/28 09:32:36;;;;;;;25.00;17.00;;;10.30;99.90;;;;;;4951944;28;20449;-72
2023/04/28 09:35:06;;;;;;;24.27;16.50;;;10.30;99.90;;;;;;4950764;28;20898;-71
2023/04/28 09:37:34;;;;;;;30.47;19.60;;;10.30;99.90;;;;;;4951749;28;20473;-72
2023/04/28 09:40:07;;;;;;;23.70;18.50;;;10.40;99.90;;;;;;4951555;28;20489;-72
2023/04/28 09:42:35;;;;;;;25.23;17.70;;;10.50;99.90;;;;;;4952056;28;20541;-71
2023/04/28 09:45:02;;;;;;;28.90;18.00;;;10.70;99.90;;;;;;4950466;28;20542;-72
2023/04/28 09:47:30;;;;;;;23.73;17.87;;;10.70;99.90;;;;;;4952307;28;20493;-72
2023/04/28 09:49:59;;;;;;;31.27;18.87;;;10.70;99.90;;;;;;4951167;28;20492;-72
2023/04/28 09:52:26;;;;;;;24.07;17.87;;;10.70;99.90;;;;;;4951772;28;20458;-72
2023/04/28 09:54:55;;;;;;;27.60;19.07;;;10.80;99.90;;;;;;4950729;28;20897;-72
2023/04/28 09:57:23;;;;;;;25.80;18.70;;;10.80;99.90;;;;;;4951787;28;20876;-72
2023/04/28 09:59:51;;;;;;;23.30;17.17;;;10.80;99.90;;;;;;4951674;28;20509;-73
2023/04/28 10:02:19;;;;;;;26.40;18.20;;;10.80;99.90;;;;;;4951930;28;20528;-72
2023/04/28 10:04:48;;;;;;;26.63;19.23;;;10.80;99.90;;;;;;4951330;28;20458;-73
2023/04/28 10:07:17;;;;;;;26.80;19.17;;;10.90;99.90;;;;;;4950910;28;20540;-73
2023/04/28 10:09:46;;;;;;;25.07;18.23;;;11.00;99.90;;;;;;4951844;28;20548;-72
2023/04/28 10:12:13;;;;;;;25.03;17.33;;;11.20;99.90;;;;;;4952471;28;20954;-71
2023/04/28 10:14:43;;;;;;;28.80;19.47;;;11.20;99.90;;;;;;4954956;28;20906;-72
2023/04/28 10:17:11;;;;;;;25.70;17.57;;;11.30;99.90;;;;;;4948089;28;20673;-71
2023/04/28 10:19:38;;;;;;;22.23;17.53;;;11.40;99.90;;;;;;4954844;28;20488;-69
2023/04/28 10:22:33;;;;;;;23.50;16.87;;;11.60;99.90;;;;;;4955176;28;20462;-72
2023/04/28 10:25:21;;;;;;;24.77;18.07;;;11.80;99.90;;;;;;4954229;28;20458;-72
2023/04/28 10:27:48;;;;;;;23.10;17.50;;;11.80;99.90;;;;;;4955371;28;20490;-70
2023/04/28 10:30:18;;;;;;;22.30;16.80;;;12.00;99.90;;;;;;4954874;28;20477;-72
2023/04/28 10:32:45;;;;;;;23.93;17.50;;;12.10;99.90;;;;;;4954683;28;20879;-72
2023/04/28 10:35:41;;;;;;;23.00;16.77;;;12.20;99.90;;;;;;4954708;28;20461;-72
2023/04/28 10:38:09;;;;;;;23.43;17.53;;;12.20;99.90;;;;;;4947856;28;20462;-70
2023/04/28 10:40:37;;;;;;;23.87;18.33;;;12.30;99.90;;;;;;4954825;28;20895;-70
2023/04/28 10:43:04;;;;;;;24.00;18.30;;;12.50;99.90;;;;;;4954724;28;20954;-69
2023/04/28 10:46:01;;;;;;;22.40;17.27;;;12.60;99.90;;;;;;4954270;28;20950;-69
2023/04/28 10:48:54;;;;;;;35.30;20.30;;;12.60;99.90;;;;;;4954789;28;20500;-72
2023/04/28 10:51:38;;;;;;;27.70;20.07;;;12.70;99.90;;;;;;4954814;28;20933;-69
2023/04/28 10:54:16;;;;;;;27.83;18.97;;;12.90;99.90;;;;;;4954548;28;20457;-70
2023/04/28 10:57:20;;;;;;;30.03;20.67;;;13.10;99.90;;;;;;4954294;28;20520;-70
2023/04/28 10:59:47;;;;;;;28.47;19.57;;;13.30;99.90;;;;;;4954257;28;20559;-72
2023/04/28 11:02:38;;;;;;;29.00;20.10;;;13.30;99.90;;;;;;4954523;28;20950;-70
2023/04/28 11:05:17;;;;;;;29.20;19.77;;;13.40;99.90;;;;;;4954020;28;20457;-70
2023/04/28 11:08:32;;;;;;;31.47;18.20;;;13.50;99.90;;;;;;4954383;28;20493;-71
2023/04/28 11:11:24;;;;;;;29.53;20.30;;;13.50;99.90;;;;;;4934309;28;20477;-71
2023/04/28 11:13:53;;;;;;;32.87;21.53;;;13.30;99.90;;;;;;4937727;28;20477;-71
2023/04/28 11:16:22;;;;;;;34.50;22.93;;;13.20;99.90;;;;;;4954125;28;21013;-71
2023/04/28 11:18:52;;;;;;;35.77;22.00;;;13.20;99.90;;;;;;4954273;28;20462;-71
2023/04/28 11:21:20;;;;;;;30.77;21.40;;;13.20;99.90;;;;;;4954039;28;20520;-70
2023/04/28 11:23:47;;;;;;;33.93;21.90;;;13.30;99.90;;;;;;4953789;28;20930;-71
2023/04/28 11:26:13;;;;;;;34.57;22.00;;;13.30;99.90;;;;;;4953889;28;20458;-70
2023/04/28 11:28:47;;;;;;;35.03;23.57;;;13.30;99.90;;;;;;4954161;28;20548;-70
2023/04/28 11:31:17;;;;;;;35.43;23.27;;;13.40;99.90;;;;;;4954218;28;20549;-71
2023/04/28 11:33:46;;;;;;;36.47;24.00;;;13.40;99.90;;;;;;4953456;28;20462;-70
2023/04/28 11:36:27;;;;;;;36.97;23.53;;;13.30;99.90;;;;;;4953790;28;20466;-71
2023/04/28 11:38:54;;;;;;;40.87;24.90;;;13.40;99.90;;;;;;4951652;28;20458;-71
2023/04/28 11:41:22;;;;;;;43.47;26.00;;;13.40;99.90;;;;;;4953878;28;20462;-70
2023/04/28 11:43:48;;;;;;;45.73;24.73;;;13.50;99.90;;;;;;4953713;28;20461;-70
2023/04/28 11:46:17;;;;;;;44.20;25.40;;;13.50;99.90;;;;;;4952979;28;20461;-71
2023/04/28 11:48:44;;;;;;;46.53;25.90;;;13.60;99.90;;;;;;4953475;28;20531;-70
2023/04/28 11:51:26;;;;;;;44.53;27.37;;;13.80;99.90;;;;;;4946038;28;20488;-70
2023/04/28 11:53:54;;;;;;;49.33;26.80;;;14.00;99.90;;;;;;4952365;28;20535;-70
2023/04/28 11:56:21;;;;;;;43.00;26.93;;;14.20;99.90;;;;;;4952560;28;20466;-70
2023/04/28 11:59:00;;;;;;;40.27;26.50;;;14.20;99.90;;;;;;4952356;28;20446;-70
2023/04/28 12:01:26;;;;;;;42.50;26.00;;;14.30;99.90;;;;;;4952755;28;20934;-71
2023/04/28 12:03:54;;;;;;;41.00;26.47;;;14.40;99.90;;;;;;4952701;28;20458;-70
2023/04/28 12:06:20;;;;;;;40.93;25.97;;;14.60;99.90;;;;;;4952817;28;20587;-72
2023/04/28 12:08:47;;;;;;;36.70;25.40;;;14.50;99.90;;;;;;4952779;28;20525;-72
2023/04/28 12:11:16;;;;;;;39.27;24.93;;;14.50;99.90;;;;;;4952258;28;20482;-72
2023/04/28 12:13:44;;;;;;;42.43;26.03;;;14.50;99.90;;;;;;4952519;28;20458;-73
2023/04/28 12:16:12;;;;;;;43.10;25.60;;;14.40;99.90;;;;;;4952770;28;20461;-73
2023/04/28 12:18:38;;;;;;;42.53;26.93;;;14.40;99.90;;;;;;4951983;28;20469;-72
2023/04/28 12:21:19;;;;;;;40.40;25.43;;;14.60;99.90;;;;;;4952440;28;20473;-73
2023/04/28 12:23:46;;;;;;;36.50;23.70;;;14.90;99.90;;;;;;4952213;28;20977;-73
2023/04/28 12:26:13;;;;;;;46.43;24.57;;;15.20;99.90;;;;;;4944035;28;20457;-71
2023/04/28 12:28:41;;;;;;;35.10;21.63;;;15.40;99.90;;;;;;4952148;28;20486;-70
2023/04/28 12:31:08;;;;;;;30.70;20.67;;;15.50;99.90;;;;;;4951934;28;21005;-71
2023/04/28 12:33:37;;;;;;;36.00;23.27;;;15.60;99.90;;;;;;4952704;28;20453;-71
2023/04/28 12:36:04;;;;;;;34.70;24.27;;;15.50;99.90;;;;;;4950641;28;20465;-71
2023/04/28 12:38:31;;;;;;;40.60;25.23;;;15.50;99.90;;;;;;4952289;28;21129;-71